Rincon, GA (31326)

7:33 AM EST on January 30, 2015 (GMT -0500)
Rice Hope Plantation | Change Station
CLOSE
Current Station
Personal Weather Station
Location: Port Wentworth, GA
Elevation: 30 ft
Nearby Weather Stations

Elev 30 ft 32.23 °N, 81.19 °W | Updated 7 minutes ago

Mostly Cloudy
Mostly Cloudy
51.8 °F
Feels Like 51.8 °F
N
0.0
Wind Variable Wind from WNW
Gusts 4.0 mph

Today
High -- | Low -- °F
--% Chance of Precip.
Yesterday
High -- | Low -- °F
Precip. -- in
7:20 AM 5:56 PM
Waxing Gibbous, 82% visible
Pressure 30.09 in
Visibility 10.0 miles
Clouds Few 5500 ft
Scattered Clouds 9000 ft
Mostly Cloudy 18000 ft
Overcast 25000 ft
Dew Point 48 °F
Humidity 88%
Rainfall 0.00 in
Snow Depth Not available.
UV 0 out of 12
Pollen 4.40 out of 12
Air Quality Not available.
Flu Activity Not available.
METAR KSAV 301153Z 28010KT 10SM FEW055 SCT090 BKN180 OVC250 12/07 A3009 RMK AO2 SLP190 T01170072 10117 20100 53004

More Conditions Fewer Conditions

Pressure 30.09 in
Visibility 10.0 miles
Clouds Few 5500 ft
Scattered Clouds 9000 ft
Mostly Cloudy 18000 ft
Overcast 25000 ft
Dew Point 48 °F
Humidity 88%
Rainfall 0.00 in
Snow Depth Not available.
UV 0 out of 12
Pollen 4.40 out of 12
Air Quality Not available.
Flu Activity Not available.
METAR KSAV 301153Z 28010KT 10SM FEW055 SCT090 BKN180 OVC250 12/07 A3009 RMK AO2 SLP190 T01170072 10117 20100 53004

More Conditions Fewer Conditions

10-Day Weather Forecast

Almanac

Astronomy

Jan. 30, 2015 Rise Set
Actual Time
Civil Twilight
Nautical Twilight
Astronomical Twilight
Moon
Length of Visible Light
Length of Day
Tomorrow will be .
, % of the Moon is Illuminated

Today's Extremes

State Highs State Lows

Community

WunderPhotos

Upload Photos

1,791,739 photos uploaded!

WunderBlogs® & News

Nearby

Air Quality

  Air Quality AQ Index Pollutant
Not available.

Snow Depth

Station Depth Elevation

Earthquake Activity

City Distance Mag. Time & Date
Minimum magnitude displayed is 2.5.

Coastal Water Temperatures

Place Temperature

Nearby Weather Stations